createdAt,value
2023-04-13T04:30:32.062Z,4
2023-04-13T04:31:34.715Z,4
2023-04-13T04:32:34.000Z,0
2023-04-13T04:33:35.198Z,0
2023-04-13T04:34:36.587Z,4
2023-04-13T04:35:37.189Z,0
2023-04-13T04:36:37.676Z,4
2023-04-13T04:37:38.723Z,8
2023-04-13T04:38:39.379Z,4
2023-04-13T04:40:11.765Z,8
2023-04-13T04:41:12.248Z,8
2023-04-13T04:42:13.702Z,12
2023-04-13T04:43:14.505Z,12
2023-04-13T04:44:15.035Z,12
2023-04-13T04:45:15.675Z,12
2023-04-13T04:46:16.413Z,16
2023-04-13T04:47:17.440Z,16
2023-04-13T04:48:18.970Z,16
2023-04-13T04:49:19.658Z,20
2023-04-13T04:50:20.463Z,24
2023-04-13T04:51:21.142Z,28
2023-04-13T04:52:24.630Z,28
2023-04-13T04:53:23.323Z,32
2023-04-13T04:54:24.836Z,32
2023-04-13T04:55:25.515Z,40
2023-04-13T04:56:26.069Z,40
2023-04-13T04:57:29.458Z,48
2023-04-13T04:58:28.722Z,52
2023-04-13T04:59:29.503Z,56
2023-04-13T05:00:30.257Z,60
2023-04-13T05:01:30.796Z,68
2023-04-13T05:02:32.116Z,72
2023-04-13T05:03:32.825Z,80
2023-04-13T05:04:34.146Z,88
2023-04-13T05:05:34.841Z,92
2023-04-13T05:06:36.213Z,100
2023-04-13T05:07:37.197Z,108
2023-04-13T05:08:37.828Z,112
2023-04-13T05:09:39.171Z,120
2023-04-13T05:11:10.774Z,128
2023-04-13T05:12:12.037Z,136
2023-04-13T05:13:12.527Z,140
2023-04-13T05:14:43.724Z,148
2023-04-13T05:16:14.685Z,152
2023-04-13T05:17:15.196Z,160
2023-04-13T05:18:16.711Z,164
2023-04-13T05:19:17.498Z,176
2023-04-13T05:20:18.999Z,180
2023-04-13T05:21:18.881Z,188
2023-04-13T05:22:20.027Z,196
2023-04-13T05:23:20.726Z,200
2023-04-13T05:24:21.454Z,208
2023-04-13T05:25:22.255Z,224
2023-04-13T05:26:22.612Z,236
2023-04-13T05:27:23.967Z,248
2023-04-13T05:28:25.114Z,256
2023-04-13T05:29:26.775Z,264
2023-04-13T05:30:27.684Z,276
2023-04-13T05:31:28.214Z,288
2023-04-13T05:32:29.480Z,296
2023-04-13T05:33:30.075Z,312
2023-04-13T05:34:31.764Z,316
2023-04-13T05:35:32.390Z,304
2023-04-13T05:36:32.880Z,304
2023-04-13T05:37:33.956Z,344
2023-04-13T05:38:35.062Z,356
2023-04-13T05:39:36.703Z,368
2023-04-13T05:40:38.158Z,292
2023-04-13T05:41:38.433Z,388
2023-04-13T05:42:39.731Z,412
2023-04-13T05:44:10.824Z,428
2023-04-13T05:45:11.674Z,444
2023-04-13T05:46:12.582Z,460
2023-04-13T05:47:13.950Z,480
2023-04-13T05:48:15.186Z,496
2023-04-13T05:49:16.020Z,504
2023-04-13T05:50:16.826Z,552
2023-04-13T05:51:17.586Z,572
2023-04-13T05:52:18.926Z,496
2023-04-13T05:53:21.078Z,508
2023-04-13T05:54:22.762Z,572
2023-04-13T05:55:23.559Z,828
2023-04-13T05:56:24.245Z,1044
2023-04-13T05:57:24.675Z,932
2023-04-13T05:58:26.036Z,692
2023-04-13T05:59:27.833Z,564
2023-04-13T06:00:28.428Z,540
2023-04-13T06:01:29.642Z,540
2023-04-13T06:02:30.511Z,548
2023-04-13T06:03:31.256Z,556
2023-04-13T06:04:32.060Z,544
2023-04-13T06:05:32.462Z,468
2023-04-13T06:06:33.019Z,516
2023-04-13T06:07:34.502Z,540
2023-04-13T06:08:35.694Z,652
2023-04-13T06:09:36.672Z,628
2023-04-13T06:10:39.477Z,568
2023-04-13T06:12:11.204Z,580
2023-04-13T06:13:11.664Z,472
2023-04-13T06:14:13.527Z,480
2023-04-13T06:15:14.454Z,580
2023-04-13T06:16:15.840Z,516
2023-04-13T06:17:16.369Z,452
2023-04-13T06:18:17.435Z,428
2023-04-13T06:19:18.820Z,456
2023-04-13T06:20:19.677Z,516
2023-04-13T06:21:21.183Z,556
2023-04-13T06:22:22.473Z,580
2023-04-13T06:23:22.954Z,592
2023-04-13T06:24:23.685Z,596
2023-04-13T06:25:24.335Z,568
2023-04-13T06:26:24.930Z,592
2023-04-13T06:27:25.948Z,544
2023-04-13T06:28:27.059Z,532
2023-04-13T06:29:28.869Z,628
2023-04-13T06:30:29.488Z,504
2023-04-13T06:31:30.203Z,664
2023-04-13T06:32:31.529Z,664
2023-04-13T06:33:31.997Z,668
2023-04-13T06:34:32.839Z,676
2023-04-13T06:35:33.617Z,608
2023-04-13T06:36:34.562Z,704
2023-04-13T06:37:35.957Z,688
2023-04-13T06:38:37.198Z,676
2023-04-13T06:39:38.941Z,672
2023-04-13T06:41:10.793Z,680
2023-04-13T06:42:11.334Z,680
2023-04-13T06:43:22.639Z,684
2023-04-13T06:44:13.889Z,680
2023-04-13T06:45:14.660Z,676
2023-04-13T06:46:19.106Z,680
2023-04-13T06:47:16.619Z,656
2023-04-13T06:48:18.198Z,600
2023-04-13T06:49:19.404Z,684
2023-04-13T06:50:20.247Z,684
2023-04-13T06:51:21.651Z,688
2023-04-13T06:52:23.013Z,688
2023-04-13T06:53:23.498Z,688
2023-04-13T06:54:24.145Z,688
2023-04-13T06:55:24.892Z,688
2023-04-13T06:56:26.276Z,688
2023-04-13T06:57:26.752Z,692
2023-04-13T06:58:28.176Z,688
2023-04-13T06:59:28.982Z,688
2023-04-13T07:00:30.659Z,692
2023-04-13T07:01:30.536Z,692
2023-04-13T07:02:31.579Z,692
2023-04-13T07:03:32.993Z,692
2023-04-13T07:05:34.234Z,696
2023-04-13T07:06:34.984Z,700
2023-04-13T07:07:36.440Z,708
2023-04-13T07:08:37.710Z,712
2023-04-13T07:10:09.676Z,716
2023-04-13T07:11:11.421Z,720
2023-04-13T07:12:12.068Z,720
2023-04-13T07:13:13.683Z,728
2023-04-13T07:14:14.174Z,732
2023-04-13T07:15:15.397Z,732
2023-04-13T07:16:16.798Z,744
2023-04-13T07:17:18.244Z,752
2023-04-13T07:18:18.643Z,756
2023-04-13T07:19:19.973Z,768
2023-04-13T07:20:20.701Z,780
2023-04-13T07:21:22.432Z,800
2023-04-13T07:22:23.194Z,832
2023-04-13T07:23:23.758Z,848
2023-04-13T07:24:25.017Z,800
2023-04-13T07:25:25.548Z,804
2023-04-13T07:26:26.182Z,524
2023-04-13T07:27:27.531Z,736
2023-04-13T07:28:28.037Z,652
2023-04-13T07:29:29.499Z,784
2023-04-13T07:30:30.195Z,796
2023-04-13T07:31:31.051Z,800
2023-04-13T07:32:32.012Z,820
2023-04-13T07:33:32.523Z,860
2023-04-13T07:34:33.976Z,888
2023-04-13T07:35:34.721Z,852
2023-04-13T07:36:36.125Z,860
2023-04-13T07:37:37.495Z,1104
2023-04-13T07:39:09.304Z,1168
2023-04-13T07:40:10.664Z,1348
2023-04-13T07:41:11.385Z,1488
2023-04-13T07:42:12.698Z,1460
2023-04-13T07:43:13.692Z,1568
2023-04-13T07:44:14.215Z,1620
2023-04-13T07:45:14.932Z,1620
2023-04-13T07:46:15.643Z,1316
2023-04-13T07:47:16.762Z,1080
2023-04-13T07:48:17.683Z,1160
2023-04-13T07:49:18.903Z,1412
2023-04-13T07:50:19.425Z,1068
2023-04-13T07:51:20.201Z,976
2023-04-13T07:52:21.589Z,1044
2023-04-13T07:53:22.029Z,1124
2023-04-13T07:54:22.629Z,1176
2023-04-13T07:55:23.252Z,1036
2023-04-13T07:56:23.885Z,872
2023-04-13T07:57:25.026Z,876
2023-04-13T07:58:25.453Z,836
2023-04-13T07:59:26.524Z,696
2023-04-13T08:00:27.000Z,648
2023-04-13T08:01:27.467Z,812
2023-04-13T08:02:29.267Z,868
2023-04-13T08:03:29.666Z,884
2023-04-13T08:04:30.458Z,796
2023-04-13T08:05:30.964Z,728
2023-04-13T08:06:32.207Z,580
2023-04-13T08:07:33.591Z,532
2023-04-13T08:08:34.099Z,720
2023-04-13T08:09:35.534Z,704
2023-04-13T08:10:36.954Z,732
2023-04-13T08:12:09.346Z,728
2023-04-13T08:13:09.939Z,728
2023-04-13T08:14:10.909Z,732
2023-04-13T08:15:11.878Z,728
2023-04-13T08:16:13.134Z,736
2023-04-13T08:17:14.235Z,740
2023-04-13T08:18:15.718Z,736
2023-04-13T08:19:16.706Z,736
2023-04-13T08:20:17.197Z,732
2023-04-13T08:21:18.673Z,732
2023-04-13T08:22:20.213Z,732
2023-04-13T08:23:21.421Z,728
2023-04-13T08:24:21.927Z,728
2023-04-13T08:25:22.536Z,724
2023-04-13T08:26:23.138Z,720
2023-04-13T08:27:24.516Z,724
2023-04-13T08:28:25.041Z,724
2023-04-13T08:29:27.224Z,468
2023-04-13T08:30:28.768Z,728
2023-04-13T08:31:29.463Z,728
2023-04-13T08:32:30.761Z,740
2023-04-13T08:33:31.183Z,740
2023-04-13T08:34:31.624Z,740
2023-04-13T08:35:32.139Z,736
2023-04-13T08:36:34.099Z,744
2023-04-13T08:37:35.199Z,748
2023-04-13T08:38:37.236Z,764
2023-04-13T08:40:07.960Z,756
2023-04-13T08:41:08.408Z,752
2023-04-13T08:42:08.744Z,508
2023-04-13T08:43:09.929Z,784
2023-04-13T08:44:10.401Z,820
2023-04-13T08:45:11.688Z,868
2023-04-13T08:46:12.175Z,932
2023-04-13T08:47:44.246Z,1028
2023-04-13T08:49:15.763Z,896
2023-04-13T08:50:16.686Z,1208
2023-04-13T08:51:17.353Z,1380
2023-04-13T08:52:18.455Z,1420
2023-04-13T08:53:19.432Z,1508
2023-04-13T08:54:19.971Z,1452
2023-04-13T08:55:20.384Z,1228
2023-04-13T08:56:26.218Z,1256
2023-04-13T08:57:21.969Z,1280
2023-04-13T08:58:22.445Z,996
2023-04-13T08:59:22.901Z,956
2023-04-13T09:00:23.341Z,1028
2023-04-13T09:01:23.836Z,1068
2023-04-13T09:02:25.336Z,884
2023-04-13T09:03:26.410Z,904
2023-04-13T09:04:26.876Z,1020
2023-04-13T09:05:27.161Z,1184
2023-04-13T09:06:27.780Z,912
2023-04-13T09:07:28.943Z,780
2023-04-13T09:08:29.497Z,752
2023-04-13T09:09:30.714Z,792
2023-04-13T09:10:32.240Z,784
2023-04-13T09:11:32.781Z,760
2023-04-13T09:12:33.938Z,776
2023-04-13T09:13:34.514Z,928
2023-04-13T09:14:35.409Z,832
2023-04-13T09:15:35.912Z,828
2023-04-13T09:16:36.884Z,1164
2023-04-13T09:18:08.196Z,1256
2023-04-13T09:19:09.504Z,1848
2023-04-13T09:20:10.538Z,1716
2023-04-13T09:21:10.992Z,1596
2023-04-13T09:22:12.280Z,1476
2023-04-13T09:23:12.671Z,1528
2023-04-13T09:24:13.138Z,1408
2023-04-13T09:25:14.472Z,1432
2023-04-13T09:26:15.455Z,1696
2023-04-13T09:27:16.006Z,1860
2023-04-13T09:28:17.276Z,1648
2023-04-13T09:29:17.713Z,1256
2023-04-13T09:30:19.037Z,980
2023-04-13T09:31:19.509Z,788
2023-04-13T09:32:20.803Z,688
2023-04-13T09:33:21.170Z,660
2023-04-13T09:34:22.220Z,704
2023-04-13T09:35:22.762Z,788
2023-04-13T09:36:23.333Z,904
2023-04-13T09:37:24.437Z,872
2023-04-13T09:38:24.834Z,848
2023-04-13T09:39:25.959Z,832
2023-04-13T09:40:26.917Z,844
2023-04-13T09:41:28.198Z,920
2023-04-13T09:42:29.700Z,1072
2023-04-13T09:43:30.166Z,1296
2023-04-13T09:44:31.467Z,1496
2023-04-13T09:45:31.960Z,1668
2023-04-13T09:46:32.395Z,1692
2023-04-13T09:47:33.447Z,1572
2023-04-13T09:48:33.951Z,1488
2023-04-13T09:49:35.346Z,1432
2023-04-13T09:50:36.202Z,1340
2023-04-13T09:52:07.713Z,1344
2023-04-13T09:53:08.185Z,1404
2023-04-13T09:54:08.614Z,1376
2023-04-13T09:55:10.016Z,1340
2023-04-13T09:56:10.425Z,1208
2023-04-13T09:57:11.592Z,1108
2023-04-13T09:58:12.881Z,1020
2023-04-13T09:59:14.202Z,1036
2023-04-13T10:00:16.597Z,1060
2023-04-13T10:01:15.770Z,1136
2023-04-13T10:02:16.122Z,1048
2023-04-13T10:03:16.629Z,1048
2023-04-13T10:04:17.699Z,1016
2023-04-13T10:05:18.338Z,880
2023-04-13T10:06:18.619Z,812
2023-04-13T10:07:19.296Z,748
2023-04-13T10:08:27.250Z,924
2023-04-13T10:09:20.932Z,904
2023-04-13T10:10:21.948Z,952
2023-04-13T10:11:23.214Z,960
2023-04-13T10:12:24.221Z,988
2023-04-13T10:13:25.004Z,940
2023-04-13T10:14:25.742Z,964
2023-04-13T10:15:26.267Z,944
2023-04-13T10:16:26.694Z,876
2023-04-13T10:17:27.186Z,940
2023-04-13T10:18:27.816Z,928
2023-04-13T10:19:28.029Z,900
2023-04-13T10:20:29.846Z,888
2023-04-13T10:21:30.219Z,960
2023-04-13T10:22:30.710Z,976
2023-04-13T10:23:32.024Z,980
2023-04-13T10:24:32.470Z,1036
2023-04-13T10:25:35.245Z,1112
2023-04-13T10:26:34.155Z,1232
2023-04-13T10:27:35.918Z,1520
2023-04-13T10:29:07.240Z,1272
2023-04-13T10:30:08.676Z,1176
2023-04-13T10:31:09.252Z,1204
2023-04-13T10:32:10.278Z,1392
2023-04-13T10:33:10.729Z,1828
2023-04-13T10:34:11.248Z,1624
2023-04-13T10:35:11.775Z,1324
2023-04-13T10:36:12.228Z,1292
2023-04-13T10:37:13.777Z,1348
2023-04-13T10:38:15.184Z,1580
2023-04-13T10:39:16.217Z,1512
2023-04-13T10:40:17.688Z,1160
2023-04-13T10:41:19.263Z,1136
2023-04-13T10:42:19.670Z,1328
2023-04-13T10:43:20.935Z,1444
2023-04-13T10:44:21.375Z,1544
2023-04-13T10:45:22.765Z,1684
2023-04-13T10:46:23.270Z,1196
2023-04-13T10:47:27.459Z,1048
2023-04-13T10:48:25.223Z,1004
2023-04-13T10:49:26.689Z,996
2023-04-13T10:50:27.140Z,992
2023-04-13T10:51:27.606Z,1000
2023-04-13T10:52:28.024Z,1012
2023-04-13T10:53:28.690Z,1048
2023-04-13T10:54:29.119Z,1132
2023-04-13T10:55:29.685Z,1220
2023-04-13T10:56:31.110Z,1324
2023-04-13T10:57:32.428Z,1348
2023-04-13T10:58:33.272Z,1400
2023-04-13T10:59:39.187Z,1268
2023-04-13T11:01:37.122Z,2224
2023-04-13T11:03:07.222Z,2124
2023-04-13T11:04:09.900Z,1656
2023-04-13T11:05:09.803Z,1620
2023-04-13T11:06:10.243Z,2168
2023-04-13T11:07:10.897Z,2336
2023-04-13T11:08:12.100Z,2052
2023-04-13T11:09:16.629Z,1472
2023-04-13T11:10:14.834Z,1468
2023-04-13T11:11:15.684Z,1540
2023-04-13T11:12:16.259Z,2052
2023-04-13T11:13:17.601Z,1828
2023-04-13T11:14:19.239Z,1612
2023-04-13T11:15:19.189Z,1628
2023-04-13T11:16:19.782Z,2112
2023-04-13T11:17:21.471Z,2364
2023-04-13T11:18:21.850Z,2308
2023-04-13T11:19:23.236Z,2612
2023-04-13T11:20:23.658Z,2108
2023-04-13T11:21:25.154Z,2000
2023-04-13T11:22:25.883Z,2220
2023-04-13T11:23:27.018Z,2624
2023-04-13T11:24:28.206Z,2460
2023-04-13T11:25:28.645Z,2192
2023-04-13T11:26:29.391Z,2356
2023-04-13T11:27:30.867Z,2256
2023-04-13T11:28:31.381Z,2176
2023-04-13T11:29:31.819Z,2032
2023-04-13T11:30:32.242Z,1844
2023-04-13T11:31:32.895Z,1624
2023-04-13T11:32:34.217Z,1608
2023-04-13T11:33:34.657Z,2016
2023-04-13T11:35:05.718Z,2712
2023-04-13T11:36:06.376Z,2980
2023-04-13T11:37:07.892Z,2852
2023-04-13T11:38:08.570Z,2704
2023-04-13T11:39:10.533Z,2420
2023-04-13T11:40:10.445Z,2052
2023-04-13T11:41:16.883Z,1940
2023-04-13T11:42:12.779Z,1952
2023-04-13T11:43:13.848Z,2048
2023-04-13T11:44:14.718Z,2272
2023-04-13T11:45:15.189Z,2476
2023-04-13T11:46:16.226Z,2544
2023-04-13T11:47:17.341Z,2284
2023-04-13T11:48:17.977Z,2284
2023-04-13T11:49:18.319Z,2160
2023-04-13T11:50:18.752Z,1912
2023-04-13T11:51:20.245Z,1564
2023-04-13T11:52:21.186Z,1388
2023-04-13T11:53:22.712Z,1308
2023-04-13T11:54:24.247Z,1352
2023-04-13T11:55:24.703Z,1272
2023-04-13T11:56:26.172Z,1108
2023-04-13T11:57:26.895Z,980
2023-04-13T11:58:28.249Z,812
2023-04-13T11:59:28.638Z,756
2023-04-13T12:00:29.124Z,768
2023-04-13T12:01:34.122Z,784
2023-04-13T12:02:33.748Z,796
2023-04-13T12:03:46.933Z,760
2023-04-13T12:04:33.962Z,744
2023-04-13T12:05:34.545Z,708
2023-04-13T12:07:06.795Z,672
2023-04-13T12:08:08.627Z,640
2023-04-13T12:09:12.335Z,644
2023-04-13T12:10:11.002Z,664
2023-04-13T12:12:46.222Z,1004
2023-04-13T12:14:20.314Z,1396
2023-04-13T12:15:33.984Z,1456
2023-04-13T12:18:22.256Z,1448
2023-04-13T12:19:19.738Z,1512
2023-04-13T12:20:20.538Z,1604
2023-04-13T12:21:21.334Z,1700
2023-04-13T12:22:23.482Z,1780
2023-04-13T12:23:24.529Z,1940
2023-04-13T12:24:24.847Z,2236
2023-04-13T12:25:26.067Z,2540
2023-04-13T12:27:10.389Z,2612
2023-04-13T12:27:27.348Z,2684
2023-04-13T12:28:27.956Z,2700
2023-04-13T12:29:28.566Z,2644
2023-04-13T12:30:29.092Z,2808
2023-04-13T12:31:30.621Z,3208
2023-04-13T12:32:32.089Z,3336
2023-04-13T12:33:33.210Z,2932
2023-04-13T12:34:34.367Z,2676
2023-04-13T12:36:05.200Z,2368
2023-04-13T12:37:06.770Z,2368
2023-04-13T12:38:07.626Z,2548
2023-04-13T12:39:08.214Z,2668
2023-04-13T12:40:09.723Z,2644
2023-04-13T12:41:11.188Z,2896
2023-04-13T12:42:12.547Z,2524
2023-04-13T12:43:14.122Z,2024
2023-04-13T12:44:14.709Z,1780
2023-04-13T12:45:15.912Z,1760
2023-04-13T12:46:16.733Z,1872
2023-04-13T12:47:17.950Z,2016
2023-04-13T12:48:18.192Z,2104
2023-04-13T12:49:19.215Z,2160
2023-04-13T12:50:19.923Z,2084
2023-04-13T12:51:21.808Z,2036
2023-04-13T12:52:22.490Z,1976
2023-04-13T12:53:23.725Z,1964
2023-04-13T12:54:25.239Z,2096
2023-04-13T12:55:25.931Z,2412
2023-04-13T12:56:26.588Z,2692
2023-04-13T12:57:27.749Z,2924
2023-04-13T12:58:29.238Z,2968
2023-04-13T12:59:30.302Z,3000
2023-04-13T13:00:30.949Z,2992
2023-04-13T13:01:32.341Z,2668
2023-04-13T13:02:33.803Z,2188
2023-04-13T13:04:04.538Z,1940
2023-04-13T13:05:05.695Z,1608
2023-04-13T13:06:06.429Z,1244
2023-04-13T13:07:07.920Z,1092
2023-04-13T13:08:08.363Z,960
2023-04-13T13:09:08.806Z,860
2023-04-13T13:10:25.908Z,732
2023-04-13T13:11:11.536Z,680
2023-04-13T13:12:12.990Z,652
2023-04-13T13:13:14.082Z,596
2023-04-13T13:14:15.360Z,520
2023-04-13T13:15:15.997Z,484
2023-04-13T13:16:17.265Z,452
2023-04-13T13:17:18.437Z,412
2023-04-13T13:18:19.425Z,356
2023-04-13T13:19:20.115Z,320
2023-04-13T13:20:20.783Z,308
2023-04-13T13:21:22.304Z,288
2023-04-13T13:22:23.722Z,268
2023-04-13T13:23:24.167Z,248
2023-04-13T13:24:25.764Z,216
2023-04-13T13:25:26.470Z,176
2023-04-13T13:26:30.547Z,156
2023-04-13T13:28:00.924Z,156
2023-04-13T13:28:28.738Z,188
2023-04-13T13:29:29.552Z,236
2023-04-13T13:30:30.181Z,228
2023-04-13T13:31:31.282Z,228
2023-04-13T13:32:31.925Z,268
2023-04-13T13:33:33.227Z,300
2023-04-13T13:35:04.055Z,288
2023-04-13T13:36:05.740Z,304
2023-04-13T13:37:06.381Z,308
2023-04-13T13:38:06.988Z,268
2023-04-13T13:39:08.613Z,260
2023-04-13T13:40:10.855Z,280
2023-04-13T13:41:14.851Z,300
2023-04-13T13:42:16.369Z,304
2023-04-13T13:43:18.906Z,296
2023-04-13T13:44:20.279Z,308
2023-04-13T13:45:20.731Z,312
2023-04-13T13:46:21.484Z,320
2023-04-13T13:47:22.847Z,336
2023-04-13T13:48:23.301Z,384
2023-04-13T13:49:24.745Z,420
2023-04-13T13:50:25.189Z,452
2023-04-13T13:51:25.932Z,488
2023-04-13T13:52:27.800Z,528
2023-04-13T13:53:28.296Z,572
2023-04-13T13:54:29.300Z,628
2023-04-13T13:55:30.083Z,676
2023-04-13T13:56:30.787Z,704
2023-04-13T13:57:32.383Z,724
2023-04-13T13:58:34.284Z,660
2023-04-13T14:00:05.264Z,588
2023-04-13T14:01:06.721Z,572
2023-04-13T14:02:08.429Z,556
2023-04-13T14:03:09.579Z,532
2023-04-13T14:04:09.738Z,500
2023-04-13T14:05:10.327Z,500
2023-04-13T14:06:11.007Z,476
2023-04-13T14:07:12.217Z,476
2023-04-13T14:08:12.717Z,464
2023-04-13T14:09:13.980Z,452
2023-04-13T14:10:15.397Z,440
2023-04-13T14:11:16.103Z,436
2023-04-13T14:12:17.510Z,456
2023-04-13T14:13:18.806Z,460
2023-04-13T14:14:22.218Z,428
2023-04-13T14:15:20.542Z,384
2023-04-13T14:16:21.190Z,368
2023-04-13T14:17:22.774Z,372
2023-04-13T14:18:23.387Z,392
2023-04-13T14:19:23.769Z,448
2023-04-13T14:20:25.320Z,532
2023-04-13T14:21:25.980Z,672
2023-04-13T14:22:26.956Z,868
2023-04-13T14:23:28.112Z,1072
2023-04-13T14:24:28.586Z,1096
2023-04-13T14:25:29.220Z,1016
2023-04-13T14:26:30.669Z,980
2023-04-13T14:27:31.731Z,1152
2023-04-13T14:28:32.228Z,1228
2023-04-13T14:29:33.283Z,1380
2023-04-13T14:31:04.595Z,1400
2023-04-13T14:32:05.738Z,1492
2023-04-13T14:33:06.210Z,1544
2023-04-13T14:34:07.535Z,1532
2023-04-13T14:35:08.124Z,1540
2023-04-13T14:36:09.635Z,1584
2023-04-13T14:37:10.945Z,1544
2023-04-13T14:38:12.039Z,1428
2023-04-13T14:39:13.929Z,1476
2023-04-13T14:40:15.434Z,1452
2023-04-13T14:41:16.140Z,1384
2023-04-13T14:42:17.276Z,1372
2023-04-13T14:43:17.719Z,1384
2023-04-13T14:44:18.930Z,1448
2023-04-13T14:45:19.464Z,1408
2023-04-13T14:46:20.085Z,1460
2023-04-13T14:47:21.281Z,1396
2023-04-13T14:48:22.756Z,1268
2023-04-13T14:49:23.535Z,1176
2023-04-13T14:50:24.101Z,1080
2023-04-13T14:51:25.787Z,1016
2023-04-13T14:52:27.216Z,972
2023-04-13T14:53:27.916Z,920
2023-04-13T14:54:29.387Z,856
2023-04-13T14:55:30.265Z,888
2023-04-13T14:56:31.531Z,920
2023-04-13T14:57:32.720Z,880
2023-04-13T14:59:04.246Z,996
2023-04-13T15:00:04.844Z,1132
2023-04-13T15:01:06.286Z,1216
2023-04-13T15:02:07.824Z,1244
2023-04-13T15:03:08.978Z,1236
2023-04-13T15:04:10.508Z,1200
2023-04-13T15:05:11.890Z,1164
2023-04-13T15:06:12.937Z,1104
2023-04-13T15:07:13.922Z,1036
2023-04-13T15:08:14.245Z,916
2023-04-13T15:09:15.132Z,852
2023-04-13T15:10:16.817Z,840
2023-04-13T15:11:17.746Z,880
2023-04-13T15:12:18.802Z,892
2023-04-13T15:13:19.281Z,928
2023-04-13T15:14:19.980Z,1060
2023-04-13T15:15:21.338Z,1160
2023-04-13T15:16:21.992Z,1120
2023-04-13T15:17:23.118Z,1100
2023-04-13T15:18:24.590Z,1124
2023-04-13T15:19:25.178Z,1232
2023-04-13T15:20:25.851Z,1268
2023-04-13T15:21:26.206Z,1268
2023-04-13T15:22:27.262Z,1204
2023-04-13T15:23:27.849Z,1036
2023-04-13T15:24:29.121Z,948
2023-04-13T15:25:29.780Z,916
2023-04-13T15:26:30.254Z,824
2023-04-13T15:27:31.350Z,788
2023-04-13T15:28:32.517Z,948
2023-04-13T15:30:04.568Z,1140
2023-04-13T15:31:05.208Z,1064
2023-04-13T15:32:05.732Z,964
2023-04-13T15:33:07.133Z,820
2023-04-13T15:34:07.738Z,816
2023-04-13T15:35:09.280Z,952
2023-04-13T15:36:09.875Z,1112
2023-04-13T15:37:10.282Z,1140
2023-04-13T15:38:11.657Z,1136
2023-04-13T15:39:12.315Z,1108
2023-04-13T15:40:13.832Z,1120
2023-04-13T15:41:14.345Z,1212
2023-04-13T15:42:14.761Z,1248
2023-04-13T15:43:15.470Z,1304
2023-04-13T15:44:16.348Z,1240
2023-04-13T15:45:16.870Z,1268
2023-04-13T15:46:17.344Z,1392
2023-04-13T15:47:18.754Z,1664
2023-04-13T15:48:19.546Z,1544
2023-04-13T15:49:20.776Z,1580
2023-04-13T15:50:21.406Z,1784
2023-04-13T15:51:21.953Z,1752
2023-04-13T15:52:22.295Z,1644
2023-04-13T15:53:25.196Z,1668
2023-04-13T15:54:24.770Z,1612
2023-04-13T15:55:25.220Z,1600
2023-04-13T15:56:25.846Z,1540
2023-04-13T15:57:27.274Z,1516
2023-04-13T15:58:27.885Z,1552
2023-04-13T15:59:28.562Z,1452
2023-04-13T16:00:29.934Z,1376
2023-04-13T16:01:30.449Z,1368
2023-04-13T16:02:32.247Z,1364
2023-04-13T16:04:02.859Z,1320
2023-04-13T16:05:04.033Z,1276
2023-04-13T16:06:04.517Z,1092
2023-04-13T16:07:13.504Z,1084
2023-04-13T16:08:06.610Z,948
2023-04-13T16:09:07.216Z,928
2023-04-13T16:10:08.566Z,916
2023-04-13T16:11:09.957Z,916
2023-04-13T16:12:10.494Z,984
2023-04-13T16:13:11.677Z,960
2023-04-13T16:14:13.871Z,924
2023-04-13T16:15:14.557Z,1012
2023-04-13T16:16:15.307Z,1056
2023-04-13T16:17:15.697Z,1056
2023-04-13T16:18:17.265Z,1036
2023-04-13T16:19:18.784Z,1052
2023-04-13T16:20:19.400Z,1080
2023-04-13T16:21:20.716Z,1096
2023-04-13T16:22:21.947Z,1096
2023-04-13T16:23:23.375Z,1104
2023-04-13T16:24:24.802Z,1112
2023-04-13T16:25:25.216Z,1124
2023-04-13T16:26:25.722Z,1136
2023-04-13T16:27:27.290Z,1120
2023-04-13T16:28:28.524Z,1112
2023-04-13T16:29:29.788Z,1120
2023-04-13T16:30:31.221Z,1112
2023-04-13T16:32:03.009Z,1108
2023-04-13T16:33:05.881Z,1120
2023-04-13T16:34:22.180Z,1128
2023-04-13T16:35:06.575Z,1116
2023-04-13T16:36:07.730Z,1112
2023-04-13T16:37:08.534Z,1108
2023-04-13T16:38:10.302Z,1112
2023-04-13T16:39:13.119Z,1128
2023-04-13T16:40:12.262Z,1152
2023-04-13T16:41:13.709Z,1172
2023-04-13T16:42:15.304Z,1164
2023-04-13T16:43:16.862Z,1160
2023-04-13T16:44:17.355Z,1172
2023-04-13T16:45:17.889Z,1188
2023-04-13T16:46:18.547Z,1200
2023-04-13T16:47:19.885Z,1216
2023-04-13T16:48:20.498Z,1232
2023-04-13T16:49:21.761Z,1228
2023-04-13T16:50:22.370Z,1216
2023-04-13T16:51:22.966Z,1192
2023-04-13T16:52:24.298Z,1156
2023-04-13T16:53:25.800Z,1132
2023-04-13T16:54:26.237Z,1104
2023-04-13T16:55:26.703Z,1080
2023-04-13T16:56:27.449Z,1056
2023-04-13T16:57:28.787Z,1024
2023-04-13T16:58:29.493Z,996
2023-04-13T16:59:30.707Z,952
2023-04-13T17:01:02.302Z,928
2023-04-13T17:02:02.826Z,900
2023-04-13T17:03:04.271Z,868
2023-04-13T17:04:05.998Z,840
2023-04-13T17:05:06.365Z,824
2023-04-13T17:06:06.781Z,808
2023-04-13T17:07:07.463Z,804
2023-04-13T17:08:08.629Z,804
2023-04-13T17:09:09.270Z,800
2023-04-13T17:10:09.780Z,804
2023-04-13T17:11:10.217Z,808
2023-04-13T17:12:11.620Z,796
2023-04-13T17:13:13.726Z,792
2023-04-13T17:14:14.367Z,784
2023-04-13T17:15:15.248Z,776
2023-04-13T17:16:15.813Z,764
2023-04-13T17:17:16.464Z,752
2023-04-13T17:18:17.148Z,740
2023-04-13T17:19:17.718Z,732
2023-04-13T17:20:18.231Z,716
2023-04-13T17:21:18.738Z,704
2023-04-13T17:22:19.304Z,684
2023-04-13T17:23:20.753Z,660
2023-04-13T17:24:21.354Z,644
2023-04-13T17:25:22.420Z,628
2023-04-13T17:26:22.898Z,620
2023-04-13T17:27:24.369Z,612
2023-04-13T17:28:25.013Z,612
2023-04-13T17:29:25.658Z,608
2023-04-13T17:30:26.110Z,608
2023-04-13T17:31:26.619Z,600
2023-04-13T17:32:27.845Z,592
2023-04-13T17:33:28.417Z,572
2023-04-13T17:34:29.552Z,544
2023-04-13T17:36:01.222Z,532
2023-04-13T17:37:02.165Z,528
2023-04-13T17:38:03.584Z,524
2023-04-13T17:39:04.794Z,516
2023-04-13T17:40:06.264Z,508
2023-04-13T17:41:06.684Z,492
2023-04-13T17:42:07.354Z,472
2023-04-13T17:43:08.564Z,444
2023-04-13T17:44:10.231Z,428
2023-04-13T17:45:10.741Z,408
2023-04-13T17:46:11.176Z,392
2023-04-13T17:47:11.736Z,368
2023-04-13T17:48:13.151Z,348
2023-04-13T17:49:14.131Z,332
2023-04-13T17:50:14.593Z,312
2023-04-13T17:51:15.036Z,300
2023-04-13T17:52:15.467Z,284
2023-04-13T17:53:17.254Z,272
2023-04-13T17:54:18.735Z,264
2023-04-13T17:55:19.389Z,248
2023-04-13T17:56:19.772Z,236
2023-04-13T17:57:20.363Z,220
2023-04-13T17:58:21.757Z,208
2023-04-13T17:59:23.242Z,192
2023-04-13T18:00:23.712Z,176
2023-04-13T18:01:24.141Z,168
2023-04-13T18:02:25.523Z,156
2023-04-13T18:03:26.882Z,148
2023-04-13T18:04:27.435Z,136
2023-04-13T18:05:28.527Z,128
2023-04-13T18:06:28.967Z,120
2023-04-13T18:07:30.302Z,104
2023-04-13T18:09:01.728Z,92
2023-04-13T18:10:02.973Z,84
2023-04-13T18:11:04.055Z,72
2023-04-13T18:12:04.716Z,68
2023-04-13T18:13:06.137Z,60
2023-04-13T18:14:07.729Z,56
2023-04-13T18:15:08.226Z,52
2023-04-13T18:16:09.577Z,44
2023-04-13T18:17:09.315Z,40
2023-04-13T18:18:10.690Z,36
2023-04-13T18:19:12.264Z,32
2023-04-13T18:20:12.985Z,32
2023-04-13T18:21:13.598Z,24
2023-04-13T18:22:15.184Z,24
2023-04-13T18:23:15.706Z,20
2023-04-13T18:24:17.703Z,16
2023-04-13T18:25:18.211Z,12
2023-04-13T18:26:18.731Z,12
2023-04-13T18:27:19.258Z,12
2023-04-13T18:28:20.639Z,8
2023-04-13T18:29:21.305Z,8
2023-04-13T18:30:21.787Z,8
2023-04-13T18:31:22.347Z,8
2023-04-13T18:32:23.110Z,4
2023-04-13T18:33:24.677Z,0
2023-04-13T18:34:26.112Z,4
2023-04-13T18:35:27.623Z,4
2023-04-13T18:36:29.073Z,0
2023-04-13T18:37:30.738Z,4
2023-04-13T18:39:01.676Z,0
2023-04-13T18:40:03.309Z,0
2023-04-13T18:41:03.865Z,0
2023-04-13T18:42:04.637Z,0
2023-04-13T18:43:06.826Z,0
2023-04-13T18:44:08.793Z,0